createdAt,value
2018-06-11T00:02:01.871Z,17.70
2018-06-11T00:04:30.252Z,17.70
2018-06-11T00:06:58.625Z,17.70
2018-06-11T00:09:27.060Z,17.70
2018-06-11T00:11:55.475Z,17.70
2018-06-11T00:14:23.886Z,17.60
2018-06-11T00:19:20.410Z,17.60
2018-06-11T00:21:48.827Z,17.50
2018-06-11T00:24:17.214Z,17.50
2018-06-11T00:26:45.612Z,17.50
2018-06-11T00:29:13.997Z,17.50
2018-06-11T00:31:42.400Z,17.50
2018-06-11T00:34:10.778Z,17.50
2018-06-11T00:36:39.155Z,17.40
2018-06-11T00:39:08.683Z,17.40
2018-06-11T00:41:37.089Z,17.40
2018-06-11T00:44:05.541Z,17.40
2018-06-11T00:46:33.927Z,17.40
2018-06-11T00:49:02.414Z,17.40
2018-06-11T00:51:30.810Z,17.40
2018-06-11T00:53:59.207Z,17.40
2018-06-11T00:56:27.593Z,17.40
2018-06-11T00:58:56.068Z,17.40
2018-06-11T01:01:24.467Z,17.30
2018-06-11T01:03:52.926Z,17.30
2018-06-11T01:06:21.329Z,17.30
2018-06-11T01:08:49.722Z,17.20
2018-06-11T01:11:18.114Z,17.20
2018-06-11T01:13:46.491Z,17.20
2018-06-11T01:16:14.902Z,17.10
2018-06-11T01:18:43.288Z,17.10
2018-06-11T01:21:11.683Z,17.10
2018-06-11T01:23:40.104Z,17.10
2018-06-11T01:26:08.482Z,17.10
2018-06-11T01:28:36.918Z,17.10
2018-06-11T01:31:05.331Z,17.10
2018-06-11T01:33:33.736Z,17.00
2018-06-11T01:36:02.142Z,17.00
2018-06-11T01:38:30.538Z,16.90
2018-06-11T01:40:58.947Z,16.90
2018-06-11T01:43:27.350Z,16.90
2018-06-11T01:45:55.807Z,16.80
2018-06-11T01:48:24.205Z,16.80
2018-06-11T01:55:48.877Z,16.70
2018-06-11T01:58:17.291Z,16.70
2018-06-11T02:00:45.682Z,16.60
2018-06-11T02:05:42.222Z,16.60
2018-06-11T02:08:10.663Z,16.60
2018-06-11T02:10:39.098Z,16.50
2018-06-11T02:15:35.567Z,16.50
2018-06-11T02:18:03.980Z,16.50
2018-06-11T02:20:32.383Z,16.50
2018-06-11T02:23:00.786Z,16.40
2018-06-11T02:27:57.310Z,16.40
2018-06-11T02:30:25.723Z,16.40
2018-06-11T02:35:22.219Z,16.40
2018-06-11T02:37:50.625Z,16.40
2018-06-11T02:40:19.035Z,16.30
2018-06-11T02:45:15.531Z,16.30
2018-06-11T02:47:43.930Z,16.20
2018-06-11T02:50:12.330Z,16.10
2018-06-11T02:52:40.738Z,16.10
2018-06-11T02:55:09.155Z,16.00
2018-06-11T02:57:37.550Z,16.00
2018-06-11T03:00:05.977Z,16.00
2018-06-11T03:02:34.374Z,16.00
2018-06-11T03:05:02.788Z,16.00
2018-06-11T03:07:31.183Z,16.00
2018-06-11T03:09:59.625Z,16.00
2018-06-11T03:12:28.016Z,16.10
2018-06-11T03:14:56.409Z,16.10
2018-06-11T03:17:24.814Z,16.20
2018-06-11T03:22:21.297Z,16.30
2018-06-11T03:24:49.691Z,16.30
2018-06-11T03:27:18.092Z,16.30
2018-06-11T03:29:46.496Z,16.30
2018-06-11T03:32:14.915Z,16.40
2018-06-11T03:34:43.326Z,16.40
2018-06-11T03:37:11.769Z,16.40
2018-06-11T03:39:40.187Z,16.30
2018-06-11T03:42:08.596Z,16.40
2018-06-11T03:44:36.998Z,16.40
2018-06-11T03:47:05.425Z,16.50
2018-06-11T03:49:33.826Z,16.50
2018-06-11T03:52:02.222Z,16.50
2018-06-11T03:54:30.647Z,16.40
2018-06-11T03:56:59.052Z,16.50
2018-06-11T03:59:27.431Z,16.50
2018-06-11T04:01:55.838Z,16.50
2018-06-11T04:04:24.250Z,16.50
2018-06-11T04:06:52.683Z,16.50
2018-06-11T04:09:21.060Z,16.50
2018-06-11T04:11:49.467Z,16.50
2018-06-11T04:14:17.867Z,16.60
2018-06-11T04:16:46.265Z,16.60
2018-06-11T04:19:14.670Z,16.60
2018-06-11T04:21:43.060Z,16.60
2018-06-11T04:24:11.450Z,16.60
2018-06-11T04:29:07.969Z,16.50
2018-06-11T04:31:36.371Z,16.50
2018-06-11T04:36:32.851Z,16.50
2018-06-11T04:39:01.228Z,16.60
2018-06-11T04:41:29.618Z,16.60
2018-06-11T04:43:58.020Z,16.70
2018-06-11T04:46:26.406Z,16.70
2018-06-11T04:48:54.819Z,16.70
2018-06-11T04:53:51.313Z,16.80
2018-06-11T04:56:19.719Z,16.80
2018-06-11T04:58:48.108Z,16.80
2018-06-11T05:01:16.509Z,16.90
2018-06-11T05:06:13.031Z,17.10
2018-06-11T05:08:41.440Z,17.30
2018-06-11T05:11:09.846Z,17.40
2018-06-11T05:13:38.225Z,17.50
2018-06-11T05:16:06.631Z,17.60
2018-06-11T05:18:35.018Z,17.70
2018-06-11T05:21:03.409Z,17.80
2018-06-11T05:23:31.805Z,17.90
2018-06-11T05:26:00.205Z,17.90
2018-06-11T05:28:28.605Z,17.80
2018-06-11T05:30:57.080Z,17.70
2018-06-11T05:33:25.482Z,17.60
2018-06-11T05:35:53.871Z,17.70
2018-06-11T05:38:22.285Z,17.60
2018-06-11T05:40:50.699Z,17.60
2018-06-11T05:43:19.084Z,17.50
2018-06-11T05:45:47.486Z,17.40
2018-06-11T05:48:15.886Z,17.30
2018-06-11T05:50:44.297Z,17.20
2018-06-11T05:53:12.700Z,17.20
2018-06-11T05:55:41.107Z,17.10
2018-06-11T05:58:09.494Z,17.00
2018-06-11T06:00:37.876Z,17.00
2018-06-11T06:03:06.278Z,17.10
2018-06-11T06:08:02.776Z,17.40
2018-06-11T06:10:31.163Z,17.40
2018-06-11T06:12:59.546Z,17.70
2018-06-11T06:15:28.863Z,18.00
2018-06-11T06:17:57.241Z,18.30
2018-06-11T06:20:25.663Z,18.60
2018-06-11T06:22:54.057Z,18.80
2018-06-11T06:25:22.461Z,18.90
2018-06-11T06:27:50.848Z,18.80
2018-06-11T06:30:19.266Z,18.70
2018-06-11T06:32:47.662Z,18.70
2018-06-11T06:35:16.058Z,18.80
2018-06-11T06:37:44.492Z,18.80
2018-06-11T06:40:12.904Z,18.80
2018-06-11T06:42:41.306Z,18.90
2018-06-11T06:45:09.699Z,19.00
2018-06-11T06:47:38.099Z,19.20
2018-06-11T06:50:06.486Z,19.40
2018-06-11T06:52:34.882Z,19.60
2018-06-11T06:55:03.290Z,19.60
2018-06-11T06:57:31.672Z,19.70
2018-06-11T07:00:00.053Z,19.70
2018-06-11T07:02:28.435Z,19.70
2018-06-11T07:04:56.838Z,19.60
2018-06-11T07:07:25.239Z,19.60
2018-06-11T07:12:21.734Z,19.50
2018-06-11T07:14:50.127Z,19.40
2018-06-11T07:17:18.515Z,19.30
2018-06-11T07:19:46.921Z,19.30
2018-06-11T07:24:43.748Z,19.40
2018-06-11T07:27:12.198Z,19.70
2018-06-11T07:29:40.540Z,20.10
2018-06-11T07:32:08.952Z,20.30
2018-06-11T07:34:37.330Z,20.40
2018-06-11T07:37:05.996Z,20.50
2018-06-11T07:39:34.389Z,20.70
2018-06-11T07:42:02.778Z,20.90
2018-06-11T07:44:31.158Z,21.00
2018-06-11T07:46:59.543Z,21.00
2018-06-11T07:49:27.922Z,20.90
2018-06-11T07:51:56.320Z,20.80
2018-06-11T07:54:24.720Z,20.70
2018-06-11T07:56:53.125Z,20.60
2018-06-11T07:59:21.531Z,20.50
2018-06-11T08:01:49.959Z,20.40
2018-06-11T08:04:18.360Z,20.40
2018-06-11T08:06:46.765Z,20.30
2018-06-11T08:09:15.180Z,20.20
2018-06-11T08:11:43.575Z,20.10
2018-06-11T08:14:11.959Z,20.10
2018-06-11T08:16:40.362Z,20.10
2018-06-11T08:19:08.766Z,20.10
2018-06-11T08:21:37.173Z,20.20
2018-06-11T08:24:05.641Z,20.30
2018-06-11T08:26:34.047Z,20.40
2018-06-11T08:29:02.463Z,20.60
2018-06-11T08:31:30.911Z,20.50
2018-06-11T08:33:59.393Z,20.60
2018-06-11T08:36:27.793Z,20.70
2018-06-11T08:41:24.341Z,21.00
2018-06-11T08:46:20.885Z,21.00
2018-06-11T08:51:17.387Z,20.80
2018-06-11T08:53:45.902Z,20.90
2018-06-11T08:56:14.315Z,20.90
2018-06-11T08:58:42.704Z,20.90
2018-06-11T09:03:03.880Z,20.90
2018-06-11T09:05:32.339Z,21.20
2018-06-11T09:08:00.741Z,21.20
2018-06-11T09:12:55.379Z,21.20
2018-06-11T09:15:23.802Z,20.90
2018-06-11T09:17:52.211Z,20.80
2018-06-11T09:20:20.643Z,20.60
2018-06-11T09:22:49.126Z,20.50
2018-06-11T09:25:17.513Z,20.60
2018-06-11T09:27:45.953Z,20.60
2018-06-11T09:30:14.377Z,20.70
2018-06-11T09:32:42.803Z,20.90
2018-06-11T09:35:11.200Z,21.20
2018-06-11T09:37:39.604Z,21.30
2018-06-11T09:40:07.997Z,21.30
2018-06-11T09:42:36.423Z,21.20
2018-06-11T09:45:04.855Z,21.00
2018-06-11T09:47:33.255Z,21.00
2018-06-11T09:50:01.646Z,21.20
2018-06-11T09:52:30.057Z,21.40
2018-06-11T09:54:58.578Z,21.50
2018-06-11T09:57:27.000Z,21.50
2018-06-11T10:02:23.490Z,21.60
2018-06-11T10:04:51.906Z,21.70
2018-06-11T10:07:20.314Z,21.90
2018-06-11T10:12:17.071Z,21.70
2018-06-11T10:14:45.439Z,21.60
2018-06-11T10:17:13.851Z,21.60
2018-06-11T10:19:42.246Z,21.50
2018-06-11T10:22:10.667Z,21.50
2018-06-11T10:24:39.078Z,21.40
2018-06-11T10:27:07.488Z,21.40
2018-06-11T10:29:35.868Z,21.30
2018-06-11T10:32:04.282Z,21.30
2018-06-11T10:34:32.706Z,21.40
2018-06-11T10:37:01.106Z,21.50
2018-06-11T10:39:29.543Z,21.50
2018-06-11T10:41:58.004Z,21.40
2018-06-11T10:44:26.415Z,21.40
2018-06-11T10:46:54.808Z,21.40
2018-06-11T10:49:23.233Z,21.50
2018-06-11T10:51:51.630Z,21.40
2018-06-11T10:56:48.150Z,21.30
2018-06-11T10:59:16.585Z,21.30
2018-06-11T11:01:44.991Z,21.30
2018-06-11T11:04:13.484Z,21.30
2018-06-11T11:06:41.913Z,21.30
2018-06-11T11:09:10.337Z,21.20
2018-06-11T11:11:38.747Z,21.20
2018-06-11T11:14:07.132Z,21.20
2018-06-11T11:16:35.536Z,21.30
2018-06-11T11:19:03.941Z,21.30
2018-06-11T11:21:32.366Z,21.40
2018-06-11T11:24:00.783Z,21.50
2018-06-11T11:26:29.186Z,21.50
2018-06-11T11:28:57.566Z,21.60
2018-06-11T11:31:26.021Z,21.70
2018-06-11T11:33:54.530Z,21.70
2018-06-11T11:36:22.931Z,21.70
2018-06-11T11:38:51.326Z,21.70
2018-06-11T11:41:19.701Z,21.80
2018-06-11T11:43:48.119Z,21.80
2018-06-11T11:46:16.518Z,21.80
2018-06-11T11:48:44.921Z,21.70
2018-06-11T11:51:13.343Z,21.70
2018-06-11T11:53:41.738Z,21.80
2018-06-11T11:56:10.135Z,21.90
2018-06-11T11:58:38.562Z,21.90
2018-06-11T12:01:07.095Z,22.00
2018-06-11T12:03:35.499Z,22.10
2018-06-11T12:06:03.918Z,22.10
2018-06-11T12:11:00.459Z,22.30
2018-06-11T12:13:28.836Z,22.30
2018-06-11T12:18:25.379Z,22.30
2018-06-11T12:20:53.778Z,22.40
2018-06-11T12:25:50.318Z,22.40
2018-06-11T12:30:46.848Z,22.20
2018-06-11T12:33:15.246Z,22.20
2018-06-11T12:35:43.658Z,22.20
2018-06-11T12:38:12.046Z,22.30
2018-06-11T12:40:40.523Z,22.30
2018-06-11T12:43:09.029Z,22.40
2018-06-11T12:45:37.462Z,22.40
2018-06-11T12:50:33.951Z,22.30
2018-06-11T12:53:02.379Z,22.40
2018-06-11T12:55:30.760Z,22.40
2018-06-11T13:00:27.259Z,22.30
2018-06-11T13:02:55.642Z,22.40
2018-06-11T13:05:24.054Z,22.40
2018-06-11T13:07:52.488Z,22.40
2018-06-11T13:10:20.951Z,22.40
2018-06-11T13:12:49.339Z,22.30
2018-06-11T13:15:17.742Z,22.30
2018-06-11T13:17:46.158Z,22.30
2018-06-11T13:20:14.609Z,22.40
2018-06-11T13:22:43.006Z,22.50
2018-06-11T13:25:11.434Z,22.60
2018-06-11T13:27:39.815Z,22.60
2018-06-11T13:30:08.276Z,22.60
2018-06-11T13:37:32.862Z,22.80
2018-06-11T13:40:01.327Z,22.80
2018-06-11T13:42:29.757Z,22.80
2018-06-11T13:47:26.276Z,22.90
2018-06-11T13:49:54.649Z,22.80
2018-06-11T13:52:23.040Z,22.80
2018-06-11T13:54:51.418Z,22.80
2018-06-11T13:57:19.823Z,22.80
2018-06-11T14:02:16.339Z,23.00
2018-06-11T14:04:44.730Z,23.00
2018-06-11T14:07:13.139Z,23.00
2018-06-11T14:09:41.527Z,23.00
2018-06-11T14:12:09.958Z,23.10
2018-06-11T14:14:38.325Z,23.00
2018-06-11T14:17:06.703Z,23.00
2018-06-11T14:19:35.104Z,23.10
2018-06-11T14:22:03.572Z,23.10
2018-06-11T14:24:32.006Z,23.20
2018-06-11T14:27:00.370Z,23.30
2018-06-11T14:29:28.769Z,23.30
2018-06-11T14:31:57.161Z,23.40
2018-06-11T14:34:25.606Z,23.40
2018-06-11T14:39:22.098Z,23.40
2018-06-11T14:41:50.519Z,23.40
2018-06-11T14:46:47.014Z,23.30
2018-06-11T14:49:15.393Z,23.30
2018-06-11T14:51:43.798Z,23.40
2018-06-11T14:54:12.250Z,23.40
2018-06-11T14:56:40.662Z,23.30
2018-06-11T14:59:09.042Z,23.30
2018-06-11T15:01:37.455Z,23.30
2018-06-11T15:06:33.994Z,23.30
2018-06-11T15:09:02.418Z,23.20
2018-06-11T15:11:30.861Z,23.30
2018-06-11T15:13:59.235Z,23.40
2018-06-11T15:16:27.671Z,23.40
2018-06-11T15:18:56.110Z,23.40
2018-06-11T15:21:24.503Z,23.50
2018-06-11T15:23:52.990Z,23.50
2018-06-11T15:26:21.410Z,23.60
2018-06-11T15:28:49.828Z,23.60
2018-06-11T15:31:18.231Z,23.50
2018-06-11T15:33:46.650Z,23.50
2018-06-11T15:36:15.108Z,23.40
2018-06-11T15:38:43.905Z,23.50
2018-06-11T15:41:12.667Z,23.60
2018-06-11T15:43:41.119Z,23.60
2018-06-11T15:46:09.509Z,23.60
2018-06-11T15:48:37.912Z,23.60
2018-06-11T15:51:06.339Z,23.60
2018-06-11T15:53:34.728Z,23.70
2018-06-11T15:56:03.187Z,23.70
2018-06-11T15:58:31.630Z,23.70
2018-06-11T16:01:00.044Z,23.60
2018-06-11T16:03:28.455Z,23.50
2018-06-11T16:08:24.951Z,23.30
2018-06-11T16:10:53.442Z,23.30
2018-06-11T16:13:21.843Z,23.30
2018-06-11T16:15:50.254Z,23.20
2018-06-11T16:18:18.635Z,23.10
2018-06-11T16:20:47.080Z,23.10
2018-06-11T16:23:15.491Z,23.10
2018-06-11T16:25:43.907Z,23.10
2018-06-11T16:28:12.315Z,23.10
2018-06-11T16:30:40.699Z,23.00
2018-06-11T16:33:09.108Z,23.00
2018-06-11T16:35:37.493Z,22.90
2018-06-11T16:38:05.910Z,22.90
2018-06-11T16:40:34.475Z,22.90
2018-06-11T16:43:03.454Z,22.80
2018-06-11T16:45:31.824Z,22.80
2018-06-11T16:48:00.256Z,22.80
2018-06-11T16:50:28.675Z,22.80
2018-06-11T16:52:57.098Z,22.70
2018-06-11T16:55:25.503Z,22.70
2018-06-11T16:57:53.891Z,22.70
2018-06-11T17:02:50.458Z,22.60
2018-06-11T17:07:46.939Z,22.60
2018-06-11T17:10:15.426Z,22.60
2018-06-11T17:12:43.847Z,22.60
2018-06-11T17:15:12.275Z,22.60
2018-06-11T17:17:40.657Z,22.60
2018-06-11T17:20:09.093Z,22.70
2018-06-11T17:22:37.490Z,22.70
2018-06-11T17:27:34.023Z,22.70
2018-06-11T17:30:02.431Z,22.70
2018-06-11T17:32:30.846Z,22.60
2018-06-11T17:34:59.310Z,22.50
2018-06-11T17:37:27.699Z,22.40
2018-06-11T17:39:56.095Z,22.40
2018-06-11T17:42:24.504Z,22.40
2018-06-11T17:44:52.906Z,22.30
2018-06-11T17:47:21.323Z,22.30
2018-06-11T17:49:49.750Z,22.20
2018-06-11T17:54:46.266Z,22.20
2018-06-11T17:57:14.736Z,22.10
2018-06-11T17:59:43.113Z,22.10
2018-06-11T18:02:11.534Z,22.10
2018-06-11T18:04:40.077Z,22.10
2018-06-11T18:07:08.451Z,22.10
2018-06-11T18:09:36.846Z,22.00
2018-06-11T18:12:05.326Z,22.10
2018-06-11T18:14:33.725Z,22.00
2018-06-11T18:19:30.283Z,22.00
2018-06-11T18:21:58.695Z,22.00
2018-06-11T18:24:27.128Z,22.00
2018-06-11T18:26:55.551Z,21.90
2018-06-11T18:29:23.949Z,21.90
2018-06-11T18:31:52.347Z,21.90
2018-06-11T18:34:20.715Z,21.80
2018-06-11T18:36:49.157Z,21.80
2018-06-11T18:39:17.618Z,21.70
2018-06-11T18:44:14.182Z,21.70
2018-06-11T18:49:10.698Z,21.60
2018-06-11T18:51:39.114Z,21.40
2018-06-11T18:54:07.517Z,21.30
2018-06-11T18:56:35.984Z,21.20
2018-06-11T18:59:04.430Z,21.10
2018-06-11T19:01:32.847Z,21.00
2018-06-11T19:04:01.216Z,20.90
2018-06-11T19:06:29.613Z,20.80
2018-06-11T19:08:58.067Z,20.80
2018-06-11T19:13:54.627Z,20.70
2018-06-11T19:18:51.286Z,20.60
2018-06-11T19:21:19.634Z,20.60
2018-06-11T19:23:48.036Z,20.60
2018-06-11T19:26:16.450Z,20.50
2018-06-11T19:28:44.846Z,20.50
2018-06-11T19:31:13.242Z,20.50
2018-06-11T19:33:41.644Z,20.40
2018-06-11T19:38:38.140Z,20.30
2018-06-11T19:41:06.543Z,20.30
2018-06-11T19:43:34.973Z,20.30
2018-06-11T19:46:03.410Z,20.20
2018-06-11T19:48:31.795Z,20.20
2018-06-11T19:51:00.299Z,20.20
2018-06-11T19:53:28.631Z,20.10
2018-06-11T19:55:57.055Z,20.10
2018-06-11T20:00:53.622Z,20.00
2018-06-11T20:03:22.019Z,20.00
2018-06-11T20:05:50.554Z,20.00
2018-06-11T20:08:18.950Z,19.90
2018-06-11T20:10:47.373Z,19.90
2018-06-11T20:13:15.782Z,19.90
2018-06-11T20:15:44.193Z,19.90
2018-06-11T20:18:12.598Z,19.80
2018-06-11T20:20:41.090Z,19.80
2018-06-11T20:23:09.502Z,19.80
2018-06-11T20:25:37.912Z,19.70
2018-06-11T20:28:06.322Z,19.60
2018-06-11T20:30:34.712Z,19.60
2018-06-11T20:33:03.130Z,19.50
2018-06-11T20:37:59.667Z,19.50
2018-06-11T20:40:28.089Z,19.50
2018-06-11T20:42:56.477Z,19.50
2018-06-11T20:45:24.910Z,19.50
2018-06-11T20:47:53.289Z,19.40
2018-06-11T20:50:21.683Z,19.40
2018-06-11T20:57:46.333Z,19.20
2018-06-11T21:00:14.883Z,19.20
2018-06-11T21:05:11.427Z,19.20
2018-06-11T21:07:39.831Z,19.10
2018-06-11T21:12:36.373Z,19.10
2018-06-11T21:17:32.883Z,19.00
2018-06-11T21:20:01.281Z,19.00
2018-06-11T21:22:29.692Z,19.00
2018-06-11T21:27:26.192Z,19.00
2018-06-11T21:29:54.589Z,18.90
2018-06-11T21:32:22.977Z,18.90
2018-06-11T21:34:51.375Z,18.80
2018-06-11T21:39:47.986Z,18.70
2018-06-11T21:42:16.434Z,18.70
2018-06-11T21:44:44.846Z,18.60
2018-06-11T21:47:13.226Z,18.60
2018-06-11T21:49:41.643Z,18.50
2018-06-11T21:54:38.163Z,18.40
2018-06-11T21:57:06.583Z,18.40
2018-06-11T21:59:35.011Z,18.30
2018-06-11T22:02:04.030Z,18.20
2018-06-11T22:07:00.793Z,18.10
2018-06-11T22:09:29.214Z,18.10
2018-06-11T22:11:57.627Z,18.00
2018-06-11T22:14:26.023Z,18.00
2018-06-11T22:16:54.424Z,17.90
2018-06-11T22:19:22.796Z,17.90
2018-06-11T22:21:51.227Z,17.90
2018-06-11T22:24:19.602Z,17.80
2018-06-11T22:26:47.995Z,17.80
2018-06-11T22:29:16.399Z,17.80
2018-06-11T22:31:44.796Z,17.70
2018-06-11T22:36:41.302Z,17.60
2018-06-11T22:39:09.715Z,17.60
2018-06-11T22:41:38.110Z,17.60
2018-06-11T22:44:06.549Z,17.60
2018-06-11T22:46:34.940Z,17.50
2018-06-11T22:49:03.317Z,17.50
2018-06-11T22:51:31.723Z,17.50
2018-06-11T22:56:28.209Z,17.40
2018-06-11T22:58:56.594Z,17.40
2018-06-11T23:01:24.995Z,17.30
2018-06-11T23:03:53.357Z,17.20
2018-06-11T23:06:21.740Z,17.20
2018-06-11T23:08:50.141Z,17.10
2018-06-11T23:11:18.537Z,17.10
2018-06-11T23:13:46.943Z,17.00
2018-06-11T23:16:15.319Z,17.00
2018-06-11T23:18:43.701Z,16.90
2018-06-11T23:21:12.078Z,16.90
2018-06-11T23:23:40.479Z,16.80
2018-06-11T23:26:08.851Z,16.80
2018-06-11T23:28:37.238Z,16.70
2018-06-11T23:31:05.641Z,16.70
2018-06-11T23:33:34.048Z,16.70
2018-06-11T23:38:30.539Z,16.70
2018-06-11T23:41:01.994Z,16.70
2018-06-11T23:43:30.473Z,16.70
2018-06-11T23:45:58.914Z,16.60
2018-06-11T23:48:27.338Z,16.50
2018-06-11T23:50:55.714Z,16.50
2018-06-11T23:53:24.090Z,16.50
2018-06-11T23:55:52.518Z,16.50
2018-06-11T23:58:20.879Z,16.40
